Dades meteomassalio
Diari Summary for Setembre 7, 2017 Units:  Metric    English   Both
« Previous Day
Next Day »
Diari Semanal Mensual Anual Personalitzat
  Maxima: Minima: Mijana:
Temperatura: -17.8 °C -10.4 °C -6.9 °C
Rosada: -17.8 °C -14.4 °C -12.6 °C
Humitat: Humidity % 34 % 54 %
Velocitat del vent: 0 km/h 0 km/h 33.3 km/h
Racha vent: 0 km/h - -
Vent:- - SSW
Pressio: 0 hPa 34442.4 hPa -
Pluja: 0 mm    
Historical Graphs
 
 
Tabular Data for Setembre 7, 2017
Time Temperature Dew Point Pressure Wind Wind Speed Wind Gust Humidity Rainfall Rate (Hourly) solar Conditions
-17.8 °C -17.8 °C 0 hPa Calm     Humidity % 0 mm SolarRadiationWatts/m^2 W/m2 Conditions
00:02 -7.3 °C -11.8 °C 34645.6 hPa SW 32.8 km/h 32.8 km/h 59 % 0 mm 0.0 W/m2 CLR
00:07 -7.3 °C -11.8 °C 34645.6 hPa SW 50.7 km/h 50.7 km/h 59 % 0 mm 0.0 W/m2 CLR
00:12 -7.6 °C -12 °C 34645.6 hPa South 29.8 km/h 29.8 km/h 60 % 0 mm 0.0 W/m2 CLR
00:13 -7.6 °C -12 °C 34645.6 hPa SW 35.7 km/h 35.7 km/h 60 % 0 mm 0.0 W/m2 CLR
00:17 -7.6 °C -12 °C 34645.6 hPa SSW 29.8 km/h 29.8 km/h 60 % 0 mm 0.0 W/m2 CLR
00:22 -7.6 °C -12 °C 34659.1 hPa SW 44.7 km/h 44.7 km/h 60 % 0 mm 0.0 W/m2 CLR
00:27 -7.6 °C -12 °C 34659.1 hPa SSW 41.7 km/h 41.7 km/h 60 % 0 mm 0.0 W/m2 CLR
00:32 -7.6 °C -11.8 °C 34659.1 hPa WSW 38.8 km/h 38.8 km/h 61 % 0 mm 0.0 W/m2 CLR
00:37 -7.6 °C -11.8 °C 34659.1 hPa SSW 26.9 km/h 26.9 km/h 61 % 0 mm 0.0 W/m2 CLR
00:42 -7.6 °C -11.8 °C 34659.1 hPa SSW 41.4 km/h 41.4 km/h 61 % 0 mm 0.0 W/m2 CLR
00:47 -7.6 °C -11.8 °C 34659.1 hPa SSW 47.6 km/h 47.6 km/h 61 % 0 mm 0.0 W/m2 CLR
00:52 -7.6 °C -11.8 °C 34659.1 hPa SSW 41.7 km/h 41.7 km/h 61 % 0 mm 0.0 W/m2 CLR
00:58 -7.6 °C -11.8 °C 34659.1 hPa SSW 32.8 km/h 32.8 km/h 61 % 0 mm 0.0 W/m2 CLR
01:03 -7.6 °C -11.7 °C 34659.1 hPa SW 47.6 km/h 47.6 km/h 62 % 0 mm 0.0 W/m2 CLR
01:08 -7.9 °C -12 °C 34659.1 hPa SSW 32.8 km/h 32.8 km/h 62 % 0 mm 0.0 W/m2 CLR
01:13 -7.9 °C -12 °C 34645.6 hPa South 41.7 km/h 41.7 km/h 62 % 0 mm 0.0 W/m2 CLR
01:18 -7.9 °C -12 °C 34645.6 hPa SSW 32.8 km/h 32.8 km/h 62 % 0 mm 0.0 W/m2 CLR
01:23 -7.9 °C -12.1 °C 34645.6 hPa SSW 50.7 km/h 50.7 km/h 61 % 0 mm 0.0 W/m2 CLR
01:28 -7.9 °C -12.1 °C 34645.6 hPa SSW 33.6 km/h 33.6 km/h 61 % 0 mm 0.0 W/m2 CLR
01:33 -7.9 °C -12.1 °C 34645.6 hPa SSW 53.6 km/h 53.6 km/h 61 % 0 mm 0.0 W/m2 CLR
01:38 -8.2 °C -12.4 °C 34645.6 hPa SSW 44.7 km/h 44.7 km/h 61 % 0 mm 0.0 W/m2 CLR
01:43 -8.2 °C -12.3 °C 34645.6 hPa SSW 38.8 km/h 38.8 km/h 62 % 0 mm 0.0 W/m2 CLR
01:48 -8.2 °C -12.3 °C 34645.6 hPa SSW 32.8 km/h 32.8 km/h 62 % 0 mm 0.0 W/m2 CLR
01:53 -8.2 °C -12.3 °C 34635.4 hPa SSW 44.7 km/h 44.7 km/h 62 % 0 mm 0.0 W/m2 CLR
01:58 -8.2 °C -12.3 °C 34635.4 hPa WSW 35.7 km/h 35.7 km/h 62 % 0 mm 0.0 W/m2 CLR
02:03 -8.2 °C -12.3 °C 34635.4 hPa South 41.7 km/h 41.7 km/h 62 % 0 mm 0.0 W/m2 CLR
02:08 -8.2 °C -12.3 °C 34635.4 hPa SW 47.6 km/h 47.6 km/h 62 % 0 mm 0.0 W/m2 CLR
02:13 -8.2 °C -12.3 °C 34625.2 hPa SW 47.6 km/h 47.6 km/h 62 % 0 mm 0.0 W/m2 CLR
02:18 -8.2 °C -12.2 °C 34625.2 hPa SSW 47.6 km/h 47.6 km/h 63 % 0 mm 0.0 W/m2 CLR
02:23 -8.2 °C -12.2 °C 34625.2 hPa SSW 31.1 km/h 31.1 km/h 63 % 0 mm 0.0 W/m2 CLR
02:28 -8.2 °C -12.2 °C 34635.4 hPa SSW 35.7 km/h 35.7 km/h 63 % 0 mm 0.0 W/m2 CLR
02:34 -8.5 °C -12.4 °C 34625.2 hPa SSW 35.7 km/h 35.7 km/h 63 % 0 mm 0.0 W/m2 CLR
02:39 -8.5 °C -12.4 °C 34625.2 hPa SSW 41.7 km/h 41.7 km/h 63 % 0 mm 0.0 W/m2 CLR
02:44 -8.5 °C -12.4 °C 34635.4 hPa SSW 26.9 km/h 26.9 km/h 63 % 0 mm 0.0 W/m2 CLR
02:49 -8.5 °C -12.4 °C 34635.4 hPa SSW 28.5 km/h 28.5 km/h 63 % 0 mm 0.0 W/m2 CLR
02:54 -8.5 °C -12.3 °C 34625.2 hPa SSW 29.8 km/h 29.8 km/h 64 % 0 mm 0.0 W/m2 CLR
02:59 -8.5 °C -12.3 °C 34625.2 hPa SSW 31.1 km/h 31.1 km/h 64 % 0 mm 0.0 W/m2 CLR
03:04 -8.5 °C -12.3 °C 34625.2 hPa SSW 29.8 km/h 29.8 km/h 64 % 0 mm 0.0 W/m2 CLR
03:09 -8.5 °C -12.3 °C 34635.4 hPa SSW 38.8 km/h 40.4 km/h 64 % 0 mm 0.0 W/m2 CLR
03:14 -8.5 °C -12.3 °C 34635.4 hPa South 29.8 km/h 29.8 km/h 64 % 0 mm 0.0 W/m2 CLR
03:19 -8.5 °C -12.3 °C 34635.4 hPa SSW 31.1 km/h 31.1 km/h 64 % 0 mm 0.0 W/m2 CLR
03:24 -8.5 °C -12.3 °C 34635.4 hPa SSW 33.6 km/h 33.6 km/h 64 % 0 mm 0.0 W/m2 CLR
03:29 -8.8 °C -12.5 °C 34635.4 hPa SSW 41.7 km/h 41.7 km/h 65 % 0 mm 0.0 W/m2 CLR
03:34 -8.8 °C -12.5 °C 34625.2 hPa SSW 35.7 km/h 35.7 km/h 65 % 0 mm 0.0 W/m2 CLR
03:39 -8.8 °C -12.5 °C 34635.4 hPa South 33.6 km/h 33.6 km/h 65 % 0 mm 0.0 W/m2 CLR
03:44 -8.8 °C -12.5 °C 34625.2 hPa SSW 38.8 km/h 38.8 km/h 65 % 0 mm 0.0 W/m2 CLR
03:49 -8.8 °C -12.5 °C 34625.2 hPa SW 47.6 km/h 47.6 km/h 65 % 0 mm 0.0 W/m2 CLR
03:54 -8.8 °C -12.5 °C 34625.2 hPa SW 29.8 km/h 29.8 km/h 65 % 0 mm 0.0 W/m2 CLR
03:59 -8.8 °C -12.5 °C 34625.2 hPa South 38.8 km/h 38.8 km/h 65 % 0 mm 0.0 W/m2 CLR
04:04 -8.8 °C -12.5 °C 34625.2 hPa SSW 47.6 km/h 47.6 km/h 65 % 0 mm 0.0 W/m2 CLR
04:09 -8.8 °C -12.3 °C 34625.2 hPa South 26.9 km/h 26.9 km/h 66 % 0 mm 0.0 W/m2 CLR
04:14 -8.8 °C -12.3 °C 34625.2 hPa South 23.8 km/h 23.8 km/h 66 % 0 mm 0.0 W/m2 CLR
04:19 -8.8 °C -12.3 °C 34625.2 hPa SSW 44.7 km/h 44.7 km/h 66 % 0 mm 0.0 W/m2 CLR
04:24 -8.8 °C -12.3 °C 34625.2 hPa South 32.8 km/h 32.8 km/h 66 % 0 mm 0.0 W/m2 CLR
04:29 -9.1 °C -12.7 °C 34625.2 hPa SSW 29.8 km/h 29.8 km/h 66 % 0 mm 0.0 W/m2 CLR
04:34 -9.1 °C -12.7 °C 34625.2 hPa SW 29.8 km/h 29.8 km/h 66 % 0 mm 0.0 W/m2 CLR
04:39 -9.1 °C -12.7 °C 34625.2 hPa South 23.8 km/h 23.8 km/h 66 % 0 mm 0.0 W/m2 CLR
04:44 -9.1 °C -12.7 °C 34625.2 hPa SSW 38.8 km/h 38.8 km/h 66 % 0 mm 0.0 W/m2 CLR
04:49 -9.1 °C -12.7 °C 34625.2 hPa SSW 36.2 km/h 36.2 km/h 66 % 0 mm 0.0 W/m2 CLR
04:54 -9.1 °C -12.6 °C 34625.2 hPa SSW 29.8 km/h 29.8 km/h 67 % 0 mm 0.0 W/m2 CLR
04:59 -9.1 °C -12.6 °C 34625.2 hPa SSW 23.8 km/h 23.8 km/h 67 % 0 mm 0.0 W/m2 CLR
05:04 -9.1 °C -12.6 °C 34625.2 hPa South 29.8 km/h 29.8 km/h 67 % 0 mm 0.0 W/m2 CLR
05:09 -9.1 °C -12.6 °C 34611.7 hPa SSW 32.8 km/h 32.8 km/h 67 % 0 mm 0.0 W/m2 CLR
05:16 -9.1 °C -12.6 °C 34611.7 hPa South 32.8 km/h 32.8 km/h 67 % 0 mm 0.0 W/m2 CLR
05:20 -9.1 °C -12.6 °C 34611.7 hPa SSE 18.2 km/h 18.2 km/h 67 % 0 mm 0.0 W/m2 CLR
05:21 -9.1 °C -12.4 °C 34611.7 hPa SSW 23.8 km/h 23.8 km/h 68 % 0 mm 0.0 W/m2 CLR
05:23 -9.1 °C -12.4 °C 34611.7 hPa SSW 15 km/h 15 km/h 68 % 0 mm 0.0 W/m2 CLR
05:26 -9.1 °C -12.4 °C 34611.7 hPa SSE 20.9 km/h 20.9 km/h 68 % 0 mm 0.0 W/m2 CLR
05:31 -9.1 °C -12.4 °C 34611.7 hPa SSW 20.9 km/h 20.9 km/h 68 % 0 mm 0.0 W/m2 CLR
05:36 -9.1 °C -12.4 °C 34611.7 hPa SE 15 km/h 15 km/h 68 % 0 mm 0.0 W/m2 CLR
05:41 -9.1 °C -12.4 °C 34611.7 hPa South 7.7 km/h 7.7 km/h 68 % 0 mm 0.0 W/m2 CLR
05:46 -9.1 °C -12.4 °C 34611.7 hPa SSE 11.9 km/h 11.9 km/h 68 % 0 mm 0.0 W/m2 CLR
05:51 -9.4 °C -12.7 °C 34611.7 hPa South 9 km/h 9 km/h 68 % 0 mm 0.0 W/m2 CLR
05:56 -9.4 °C -12.6 °C 34601.5 hPa SSE 20.9 km/h 20.9 km/h 69 % 0 mm 0.0 W/m2 CLR
06:01 -9.4 °C -12.6 °C 34601.5 hPa SSE 15.6 km/h 15.6 km/h 69 % 0 mm 0.0 W/m2 CLR
06:06 -9.8 °C -12.9 °C 34601.5 hPa Calm     69 % 0 mm 0.0 W/m2 CLR
06:11 -9.8 °C -12.9 °C 34601.5 hPa SSE 15 km/h 15 km/h 69 % 0 mm 0.0 W/m2 CLR
06:16 -9.8 °C -12.9 °C 34601.5 hPa South 26.9 km/h 26.9 km/h 69 % 0 mm 0.0 W/m2 CLR
06:21 -9.8 °C -12.9 °C 34591.4 hPa South 32.8 km/h 32.8 km/h 69 % 0 mm 0.0 W/m2 CLR
06:27 -9.8 °C -13 °C 34591.4 hPa South 26.9 km/h 26.9 km/h 68 % 0 mm 0.0 W/m2 CLR
06:32 -9.8 °C -13 °C 34591.4 hPa South 26.9 km/h 26.9 km/h 68 % 0 mm 0.0 W/m2 CLR
06:37 -9.8 °C -13 °C 34591.4 hPa South 29.8 km/h 29.8 km/h 68 % 0 mm 0.0 W/m2 CLR
06:42 -9.8 °C -13 °C 34591.4 hPa SE 23.8 km/h 23.8 km/h 68 % 0 mm 0.0 W/m2 CLR
06:47 -9.4 °C -12.6 °C 34591.4 hPa SSE 23.8 km/h 23.8 km/h 69 % 0 mm 0.0 W/m2 CLR
06:52 -9.4 °C -12.6 °C 34591.4 hPa SSE 11.9 km/h 11.9 km/h 69 % 0 mm 0.0 W/m2 CLR
06:57 -9.4 °C -12.4 °C 34591.4 hPa South 26.9 km/h 26.9 km/h 70 % 0 mm 0.0 W/m2 CLR
07:02 -9.8 °C -12.7 °C 34601.5 hPa Calm     70 % 0 mm 0.0 W/m2 CLR
07:07 -9.8 °C -12.7 °C 34601.5 hPa Calm     70 % 0 mm 0.0 W/m2 CLR
07:12 -10.1 °C -12.9 °C 34591.4 hPa South 18.2 km/h 18.2 km/h 71 % 0 mm 0.0 W/m2 CLR
07:17 -10.4 °C -13.2 °C 34601.5 hPa South 15 km/h 15 km/h 71 % 0 mm 0.0 W/m2 CLR
07:22 -10.4 °C -13.2 °C 34601.5 hPa South 17.9 km/h 17.9 km/h 71 % 0 mm 0.0 W/m2 CLR
07:27 -10.4 °C -13.2 °C 34601.5 hPa SSE 17.9 km/h 17.9 km/h 71 % 0 mm 0.0 W/m2 OVC
07:32 -10.4 °C -13.2 °C 34601.5 hPa SSW 23.8 km/h 23.8 km/h 71 % 0 mm 0.0 W/m2 OVC
07:37 -10.4 °C -13.2 °C 34601.5 hPa South 29.8 km/h 29.8 km/h 71 % 0 mm 7.0 W/m2 OVC
07:42 -10.4 °C -13.2 °C 34601.5 hPa South 23.8 km/h 23.8 km/h 71 % 0 mm 11.0 W/m2 BKN
07:47 -10.4 °C -13.2 °C 34601.5 hPa South 15.6 km/h 15.6 km/h 71 % 0 mm 16.0 W/m2 BKN
07:52 -10.4 °C -13.2 °C 34601.5 hPa SSE 20.9 km/h 20.9 km/h 71 % 0 mm 19.0 W/m2 BKN
07:57 -10.1 °C -12.9 °C 34601.5 hPa SSE 23.3 km/h 23.3 km/h 71 % 0 mm 25.0 W/m2 BKN
08:02 -10.1 °C -12.9 °C 34601.5 hPa SSE 29.8 km/h 29.8 km/h 71 % 0 mm 30.0 W/m2 BKN
08:07 -9.8 °C -12.7 °C 34601.5 hPa SE 17.9 km/h 17.9 km/h 71 % 0 mm 39.0 W/m2 BKN
08:12 -9.8 °C -12.7 °C 34611.7 hPa SSE 17.9 km/h 17.9 km/h 71 % 0 mm 46.0 W/m2 SCT
08:17 -9.8 °C -12.7 °C 34601.5 hPa South 17.9 km/h 17.9 km/h 71 % 0 mm 60.0 W/m2 SCT
08:22 -9.8 °C -12.7 °C 34611.7 hPa South 29.8 km/h 29.8 km/h 71 % 0 mm 67.0 W/m2 FEW
08:27 -9.8 °C -12.7 °C 34611.7 hPa SSE 29.8 km/h 29.8 km/h 70 % 0 mm 74.0 W/m2 FEW
08:32 -9.4 °C -12.4 °C 34611.7 hPa SSE 26.9 km/h 26.9 km/h 70 % 0 mm 70.0 W/m2 FEW
08:37 -9.4 °C -12.4 °C 34611.7 hPa SSE 29.8 km/h 29.8 km/h 70 % 0 mm 97.0 W/m2 FEW
08:42 -9.4 °C -12.6 °C 34611.7 hPa South 20.8 km/h 20.8 km/h 69 % 0 mm 56.0 W/m2 FEW
08:47 -9.4 °C -12.6 °C 34601.5 hPa South 23.8 km/h 23.8 km/h 69 % 0 mm 69.0 W/m2 SCT
08:52 -9.4 °C -12.7 °C 34601.5 hPa South 38.8 km/h 38.8 km/h 68 % 0 mm 163.0 W/m2 FEW
08:57 -9.1 °C -12.4 °C 34601.5 hPa SSW 32.8 km/h 32.8 km/h 68 % 0 mm 181.0 W/m2 CLR
09:02 -9.1 °C -12.4 °C 34601.5 hPa South 35.7 km/h 35.7 km/h 68 % 0 mm 195.0 W/m2 CLR
09:07 -9.1 °C -12.6 °C 34601.5 hPa SSW 32.8 km/h 32.8 km/h 67 % 0 mm 211.0 W/m2 CLR
09:12 -8.8 °C -12.2 °C 34601.5 hPa South 32.8 km/h 32.8 km/h 67 % 0 mm 230.0 W/m2 CLR
09:17 -8.8 °C -12.3 °C 34601.5 hPa SSW 44.7 km/h 44.7 km/h 66 % 0 mm 244.0 W/m2 CLR
09:22 -8.8 °C -12.3 °C 34601.5 hPa SSW 29.8 km/h 29.8 km/h 66 % 0 mm 264.0 W/m2 CLR
09:27 -8.5 °C -12.2 °C 34601.5 hPa SW 50.7 km/h 50.7 km/h 65 % 0 mm 278.0 W/m2 CLR
09:32 -8.5 °C -12.2 °C 34611.7 hPa SSW 38.8 km/h 38.8 km/h 65 % 0 mm 292.0 W/m2 CLR
09:37 -8.5 °C -12.2 °C 34611.7 hPa SW 56.6 km/h 56.6 km/h 65 % 0 mm 309.0 W/m2 CLR
09:42 -8.5 °C -12.1 °C 34611.7 hPa SW 35.7 km/h 35.7 km/h 66 % 0 mm 327.0 W/m2 CLR
09:47 -8.5 °C -12.2 °C 34611.7 hPa SW 50.7 km/h 50.7 km/h 65 % 0 mm 334.0 W/m2 CLR
09:52 -8.2 °C -11.9 °C 34611.7 hPa WSW 38.8 km/h 38.8 km/h 65 % 0 mm 352.0 W/m2 CLR
09:57 -8.2 °C -11.9 °C 34611.7 hPa SSW 44.7 km/h 44.7 km/h 65 % 0 mm 373.0 W/m2 CLR
10:02 -8.2 °C -12.1 °C 34611.7 hPa SW 44.7 km/h 44.7 km/h 64 % 0 mm 387.0 W/m2 CLR
10:07 -8.2 °C -12.1 °C 34611.7 hPa SW 41.7 km/h 41.7 km/h 64 % 0 mm 399.0 W/m2 CLR
10:12 -8.2 °C -12.2 °C 34611.7 hPa SSW 41.7 km/h 41.7 km/h 63 % 0 mm 411.0 W/m2 CLR
10:17 -7.9 °C -11.9 °C 34611.7 hPa SSW 41.7 km/h 41.7 km/h 63 % 0 mm 429.0 W/m2 CLR
10:22 -8.2 °C -12.2 °C 34611.7 hPa SW 50.7 km/h 50.7 km/h 63 % 0 mm 446.0 W/m2 CLR
10:27 -7.9 °C -12 °C 34611.7 hPa WSW 41.7 km/h 41.7 km/h 62 % 0 mm 461.0 W/m2 CLR
10:32 -7.9 °C -11.9 °C 34611.7 hPa SW 31.1 km/h 31.1 km/h 63 % 0 mm 464.0 W/m2 CLR
10:38 -7.9 °C -12.1 °C 34625.2 hPa SW 46.7 km/h 46.7 km/h 61 % 0 mm 489.0 W/m2 CLR
10:43 -7.6 °C -11.7 °C 34625.2 hPa SW 35.7 km/h 35.7 km/h 62 % 0 mm 504.0 W/m2 CLR
10:48 -7.6 °C -11.8 °C 34611.7 hPa South 32.8 km/h 32.8 km/h 61 % 0 mm 522.0 W/m2 CLR
10:52 -7.6 °C -11.8 °C 34625.2 hPa SW 41.7 km/h 41.7 km/h 61 % 0 mm 533.0 W/m2 CLR
10:57 -7.6 °C -11.8 °C 34611.7 hPa SW 35.7 km/h 35.7 km/h 61 % 0 mm 536.0 W/m2 CLR
11:03 -7.6 °C -11.8 °C 34611.7 hPa SSW 26.9 km/h 26.9 km/h 61 % 0 mm 555.0 W/m2 CLR
11:08 -7.6 °C -12 °C 34625.2 hPa WSW 41.7 km/h 41.7 km/h 60 % 0 mm 577.0 W/m2 CLR
11:13 -7.3 °C -11.8 °C 34611.7 hPa SSW 41.7 km/h 41.7 km/h 59 % 0 mm 591.0 W/m2 CLR
11:18 -7.3 °C -11.8 °C 34611.7 hPa WSW 32.8 km/h 32.8 km/h 59 % 0 mm 591.0 W/m2 CLR
11:23 -7.3 °C -11.8 °C 34611.7 hPa SW 38.8 km/h 38.8 km/h 59 % 0 mm 605.0 W/m2 CLR
11:28 -7 °C -11.7 °C 34611.7 hPa West 32.8 km/h 32.8 km/h 58 % 0 mm 555.0 W/m2 CLR
11:33 -7 °C -12 °C 34611.7 hPa SSW 41.7 km/h 41.7 km/h 56 % 0 mm 587.0 W/m2 CLR
11:38 -7 °C -11.7 °C 34611.7 hPa SSW 29.8 km/h 31.5 km/h 58 % 0 mm 622.0 W/m2 CLR
11:43 -6.7 °C -11.6 °C 34611.7 hPa SW 44.7 km/h 44.7 km/h 57 % 0 mm 647.0 W/m2 CLR
11:48 -6.7 °C -11.6 °C 34601.5 hPa SW 44.1 km/h 44.1 km/h 57 % 0 mm 675.0 W/m2 CLR
11:53 -6.7 °C -11.7 °C 34611.7 hPa SW 41.7 km/h 41.7 km/h 56 % 0 mm 680.0 W/m2 CLR
11:58 -6.7 °C -11.8 °C 34611.7 hPa SSW 47.6 km/h 47.6 km/h 55 % 0 mm 689.0 W/m2 CLR
12:03 -6.3 °C -11.6 °C 34611.7 hPa South 29.8 km/h 29.8 km/h 55 % 0 mm 694.0 W/m2 CLR
12:08 -6.1 °C -11.4 °C 34611.7 hPa SW 20.9 km/h 20.9 km/h 54 % 0 mm 707.0 W/m2 CLR
12:13 -6.1 °C -11.3 °C 34611.7 hPa SSW 44.7 km/h 44.7 km/h 55 % 0 mm 714.0 W/m2 CLR
12:18 -6.3 °C -11.8 °C 34601.5 hPa SW 50.7 km/h 50.7 km/h 53 % 0 mm 721.0 W/m2 CLR
12:23 -6.1 °C -11.6 °C 34601.5 hPa South 41.7 km/h 41.7 km/h 53 % 0 mm 729.0 W/m2 CLR
12:28 -6.1 °C -11.6 °C 34601.5 hPa SW 33.6 km/h 33.6 km/h 53 % 0 mm 733.0 W/m2 CLR
12:33 -6.1 °C -11.7 °C 34601.5 hPa South 41.4 km/h 41.4 km/h 52 % 0 mm 740.0 W/m2 CLR
12:38 -6.1 °C -11.9 °C 34601.5 hPa SW 29.8 km/h 29.8 km/h 51 % 0 mm 752.0 W/m2 CLR
12:43 -5.7 °C -11.6 °C 34591.4 hPa SSW 32.8 km/h 32.8 km/h 51 % 0 mm 759.0 W/m2 CLR
12:48 -5.7 °C -11.8 °C 34591.4 hPa SSW 38.8 km/h 38.8 km/h 50 % 0 mm 766.0 W/m2 CLR
12:53 -5.7 °C -11.8 °C 34591.4 hPa SSE 35.7 km/h 35.7 km/h 50 % 0 mm 772.0 W/m2 CLR
12:58 -5.4 °C -11.8 °C 34591.4 hPa SW 41.7 km/h 41.7 km/h 48 % 0 mm 780.0 W/m2 CLR
13:03 -5.4 °C -11.7 °C 34577.8 hPa SW 38.8 km/h 38.8 km/h 49 % 0 mm 786.0 W/m2 CLR
13:08 -5.4 °C -12 °C 34577.8 hPa SSW 41.7 km/h 41.7 km/h 47 % 0 mm 793.0 W/m2 CLR
13:13 -5.4 °C -11.8 °C 34577.8 hPa WSW 29.8 km/h 29.8 km/h 48 % 0 mm 789.0 W/m2 CLR
13:18 -5.1 °C -11.6 °C 34577.8 hPa West 36.2 km/h 36.2 km/h 48 % 0 mm 795.0 W/m2 CLR
13:23 -5.1 °C -11.6 °C 34567.7 hPa SW 25.9 km/h 25.9 km/h 48 % 0 mm 793.0 W/m2 CLR
13:28 -5.1 °C -11.7 °C 34567.7 hPa SW 35.7 km/h 35.7 km/h 47 % 0 mm 796.0 W/m2 CLR
13:33 -5.1 °C -11.7 °C 34567.7 hPa SW 29.8 km/h 29.8 km/h 47 % 0 mm 800.0 W/m2 CLR
13:38 -4.8 °C -11.6 °C 34554.1 hPa SSW 38.8 km/h 38.8 km/h 46 % 0 mm 803.0 W/m2 CLR
13:43 -5.1 °C -11.9 °C 34554.1 hPa SSW 47.6 km/h 47.6 km/h 46 % 0 mm 809.0 W/m2 CLR
13:48 -4.8 °C -11.8 °C 34554.1 hPa South 29.8 km/h 29.8 km/h 45 % 0 mm 812.0 W/m2 CLR
13:53 -4.8 °C -12 °C 34554.1 hPa WSW 29.8 km/h 29.8 km/h 44 % 0 mm 816.0 W/m2 CLR
13:58 -4.8 °C -12 °C 34554.1 hPa SW 41.7 km/h 41.7 km/h 44 % 0 mm 809.0 W/m2 CLR
14:03 -4.8 °C -12 °C 34544 hPa SW 17.9 km/h 17.9 km/h 44 % 0 mm 803.0 W/m2 CLR
14:08 -4.8 °C -12.2 °C 34544 hPa South 41.7 km/h 41.7 km/h 43 % 0 mm 805.0 W/m2 CLR
14:13 -4.5 °C -11.7 °C 34544 hPa SW 36.2 km/h 36.2 km/h 44 % 0 mm 810.0 W/m2 CLR
14:18 -4.5 °C -12.1 °C 34544 hPa SW 41.7 km/h 41.7 km/h 42 % 0 mm 807.0 W/m2 CLR
14:23 -4.5 °C -12.1 °C 34533.8 hPa SW 29.8 km/h 29.8 km/h 42 % 0 mm 800.0 W/m2 CLR
14:28 -4.5 °C -12.6 °C 34533.8 hPa West 44.7 km/h 44.7 km/h 40 % 0 mm 798.0 W/m2 CLR
14:33 -4.2 °C -11.8 °C 34533.8 hPa South 35.7 km/h 35.7 km/h 42 % 0 mm 796.0 W/m2 CLR
14:38 -4.5 °C -12.6 °C 34533.8 hPa SSW 36.2 km/h 36.2 km/h 40 % 0 mm 791.0 W/m2 CLR
14:43 -4.2 °C -12.1 °C 34520.3 hPa SW 47.6 km/h 47.6 km/h 41 % 0 mm 786.0 W/m2 CLR
14:48 -4.5 °C -12.3 °C 34520.3 hPa SSW 44.7 km/h 44.7 km/h 41 % 0 mm 780.0 W/m2 CLR
14:53 -4.5 °C -12.6 °C 34520.3 hPa SW 50.7 km/h 50.7 km/h 40 % 0 mm 766.0 W/m2 CLR
14:58 -4.2 °C -12.4 °C 34520.3 hPa SW 41.7 km/h 41.7 km/h 39 % 0 mm 751.0 W/m2 CLR
15:03 -4.2 °C -12.3 °C 34510.1 hPa WSW 29.8 km/h 29.8 km/h 40 % 0 mm 759.0 W/m2 CLR
15:08 -4.2 °C -12.4 °C 34510.1 hPa WSW 26.9 km/h 26.9 km/h 39 % 0 mm 744.0 W/m2 CLR
15:13 -4.2 °C -12.7 °C 34510.1 hPa SSW 41.7 km/h 41.7 km/h 38 % 0 mm 724.0 W/m2 CLR
15:18 -4.2 °C -12.4 °C 34510.1 hPa SW 35.7 km/h 35.7 km/h 39 % 0 mm 703.0 W/m2 CLR
15:23 -4.2 °C -12.7 °C 34510.1 hPa SW 31.1 km/h 31.1 km/h 38 % 0 mm 687.0 W/m2 CLR
15:28 -4.2 °C -12.9 °C 34496.6 hPa SSW 41.4 km/h 41.4 km/h 37 % 0 mm 686.0 W/m2 CLR
15:33 -3.9 °C -12.4 °C 34496.6 hPa SSW 41.7 km/h 41.7 km/h 38 % 0 mm 679.0 W/m2 CLR
15:38 -3.9 °C -12.2 °C 34496.6 hPa SSW 23.8 km/h 23.8 km/h 39 % 0 mm 671.0 W/m2 CLR
15:43 -3.9 °C -12.2 °C 34496.6 hPa WSW 29.8 km/h 29.8 km/h 39 % 0 mm 663.0 W/m2 CLR
15:48 -3.9 °C -12.4 °C 34496.6 hPa WSW 47.6 km/h 47.6 km/h 38 % 0 mm 649.0 W/m2 CLR
15:53 -3.9 °C -12.6 °C 34486.4 hPa SSW 41.7 km/h 41.7 km/h 37 % 0 mm 629.0 W/m2 CLR
15:58 -3.9 °C -12.4 °C 34486.4 hPa SW 26.9 km/h 26.9 km/h 38 % 0 mm 635.0 W/m2 CLR
16:03 -3.9 °C -12.6 °C 34486.4 hPa WSW 44.7 km/h 44.7 km/h 37 % 0 mm 624.0 W/m2 CLR
16:09 -3.9 °C -12.6 °C 34486.4 hPa West 29.8 km/h 29.8 km/h 37 % 0 mm 610.0 W/m2 CLR
16:14 -4.2 °C -12.7 °C 34486.4 hPa West 20.9 km/h 20.9 km/h 38 % 0 mm 605.0 W/m2 CLR
16:19 -3.9 °C -12.8 °C 34476.3 hPa South 26.9 km/h 26.9 km/h 36 % 0 mm 591.0 W/m2 CLR
16:24 -3.9 °C -12.6 °C 34486.4 hPa SW 36.2 km/h 36.2 km/h 37 % 0 mm 582.0 W/m2 CLR
16:28 -3.6 °C -12.6 °C 34476.3 hPa WSW 38.8 km/h 38.8 km/h 36 % 0 mm 566.0 W/m2 CLR
16:34 -3.6 °C -12.3 °C 34476.3 hPa SW 6 km/h   37 % 0 mm 563.0 W/m2 CLR
16:39 -3.6 °C -12.6 °C 34476.3 hPa WSW 38.8 km/h 38.8 km/h 36 % 0 mm 559.0 W/m2 CLR
16:44 -3.6 °C -12.6 °C 34476.3 hPa SW 32.8 km/h 32.8 km/h 36 % 0 mm 547.0 W/m2 CLR
16:49 -3.6 °C -12.8 °C 34476.3 hPa SW 29.8 km/h 29.8 km/h 35 % 0 mm 536.0 W/m2 CLR
16:54 -3.6 °C -12.6 °C 34462.7 hPa WSW 17.9 km/h 17.9 km/h 36 % 0 mm 529.0 W/m2 CLR
16:59 -3.6 °C -13 °C 34462.7 hPa SSW 26.9 km/h 26.9 km/h 34 % 0 mm 510.0 W/m2 CLR
17:04 -3.6 °C -13 °C 34462.7 hPa West 35.7 km/h 35.7 km/h 34 % 0 mm 504.0 W/m2 CLR
17:09 -3.6 °C -12.8 °C 34462.7 hPa SW 32.8 km/h 32.8 km/h 35 % 0 mm 490.0 W/m2 CLR
17:14 -3.6 °C -12.8 °C 34462.7 hPa SW 23.8 km/h 23.8 km/h 35 % 0 mm 462.0 W/m2 CLR
17:19 -3.6 °C -12.8 °C 34462.7 hPa SSW 38.8 km/h 38.8 km/h 35 % 0 mm 468.0 W/m2 CLR
17:24 -3.6 °C -12.8 °C 34452.6 hPa SSW 15 km/h 15 km/h 35 % 0 mm 455.0 W/m2 CLR
17:29 -3.6 °C -12.8 °C 34452.6 hPa SSE 11.9 km/h 11.9 km/h 35 % 0 mm 439.0 W/m2 CLR
17:34 -3.6 °C -12.6 °C 34452.6 hPa SW 29.8 km/h 29.8 km/h 36 % 0 mm 420.0 W/m2 CLR
17:39 -3.6 °C -12.8 °C 34452.6 hPa WNW 29.8 km/h 29.8 km/h 35 % 0 mm 408.0 W/m2 CLR
17:44 -3.6 °C -12.6 °C 34452.6 hPa SW 31.1 km/h 31.1 km/h 36 % 0 mm 381.0 W/m2 CLR
17:49 -3.6 °C -12.6 °C 34452.6 hPa West 23.8 km/h 23.8 km/h 36 % 0 mm 376.0 W/m2 CLR
17:54 -3.9 °C -13.1 °C 34452.6 hPa SW 29.8 km/h 29.8 km/h 35 % 0 mm 345.0 W/m2 CLR
17:59 -3.6 °C -12.6 °C 34452.6 hPa WSW 26.9 km/h 26.9 km/h 36 % 0 mm 334.0 W/m2 CLR
18:04 -3.6 °C -12.6 °C 34452.6 hPa WSW 29.8 km/h 29.8 km/h 36 % 0 mm 311.0 W/m2 CLR
18:09 -3.9 °C -12.8 °C 34452.6 hPa WSW 29.8 km/h 29.8 km/h 36 % 0 mm 320.0 W/m2 CLR
18:14 -3.9 °C -12.8 °C 34452.6 hPa SW 32.8 km/h 32.8 km/h 36 % 0 mm 287.0 W/m2 CLR
18:19 -3.9 °C -12.6 °C 34452.6 hPa WSW 35.7 km/h 35.7 km/h 37 % 0 mm 278.0 W/m2 CLR
18:24 -4.2 °C -12.9 °C 34452.6 hPa West 29.8 km/h 29.8 km/h 37 % 0 mm 272.0 W/m2 CLR
18:29 -4.2 °C -12.9 °C 34452.6 hPa WSW 29.8 km/h 29.8 km/h 37 % 0 mm 265.0 W/m2 CLR
18:34 -4.2 °C -12.9 °C 34452.6 hPa SW 44.7 km/h 44.7 km/h 37 % 0 mm 244.0 W/m2 CLR
18:39 -4.2 °C -12.7 °C 34452.6 hPa SSW 20.9 km/h 20.9 km/h 38 % 0 mm 229.0 W/m2 CLR
18:44 -4.2 °C -12.7 °C 34452.6 hPa SW 26.9 km/h 26.9 km/h 38 % 0 mm 213.0 W/m2 CLR
18:49 -4.2 °C -12.7 °C 34442.4 hPa SW 44.7 km/h 44.7 km/h 38 % 0 mm 197.0 W/m2 CLR
18:54 -4.5 °C -12.9 °C 34452.6 hPa WSW 44.7 km/h 44.7 km/h 38 % 0 mm 181.0 W/m2 CLR
18:59 -4.5 °C -12.9 °C 34442.4 hPa WSW 47.6 km/h 47.6 km/h 38 % 0 mm 160.0 W/m2 CLR
19:04 -4.5 °C -12.9 °C 34452.6 hPa WSW 36.2 km/h 36.2 km/h 38 % 0 mm 146.0 W/m2 CLR
19:09 -4.5 °C -12.9 °C 34452.6 hPa WSW 31.1 km/h 31.1 km/h 38 % 0 mm 130.0 W/m2 CLR
19:14 -4.5 °C -12.9 °C 34452.6 hPa West 41.7 km/h 41.7 km/h 38 % 0 mm 116.0 W/m2 CLR
19:19 -4.5 °C -12.9 °C 34452.6 hPa SW 41.7 km/h 41.7 km/h 38 % 0 mm 102.0 W/m2 CLR
19:24 -4.5 °C -13.2 °C 34452.6 hPa WSW 41.7 km/h 41.7 km/h 37 % 0 mm 91.0 W/m2 CLR
19:29 -4.8 °C -13.4 °C 34452.6 hPa WSW 38.8 km/h 38.8 km/h 37 % 0 mm 79.0 W/m2 FEW
19:34 -4.8 °C -13.2 °C 34452.6 hPa West 44.7 km/h 44.7 km/h 38 % 0 mm 67.0 W/m2 FEW
19:39 -4.8 °C -13.2 °C 34452.6 hPa SW 47.6 km/h 47.6 km/h 38 % 0 mm 54.0 W/m2 SCT
19:44 -4.8 °C -13 °C 34452.6 hPa WSW 29.8 km/h 29.8 km/h 39 % 0 mm 44.0 W/m2 SCT
19:49 -5.1 °C -13.3 °C 34452.6 hPa WSW 20.9 km/h 20.9 km/h 39 % 0 mm 37.0 W/m2 BKN
19:54 -5.1 °C -13.3 °C 34452.6 hPa WSW 29.8 km/h 29.8 km/h 39 % 0 mm 30.0 W/m2 BKN
19:59 -5.4 °C -13.8 °C 34452.6 hPa SW 35.7 km/h 35.7 km/h 38 % 0 mm 23.0 W/m2 BKN
20:04 -5.4 °C -13.8 °C 34452.6 hPa WSW 29.8 km/h 29.8 km/h 38 % 0 mm 16.0 W/m2 BKN
20:09 -5.4 °C -13.8 °C 34462.7 hPa SW 41.7 km/h 41.7 km/h 38 % 0 mm 12.0 W/m2 BKN
20:14 -5.4 °C -13.8 °C 34462.7 hPa WSW 33.6 km/h 33.6 km/h 38 % 0 mm 9.0 W/m2 BKN
20:19 -5.4 °C -13.6 °C 34462.7 hPa SW 23.8 km/h 23.8 km/h 39 % 0 mm 5.0 W/m2 OVC
20:24 -5.7 °C -13.8 °C 34462.7 hPa Calm   0.3 km/h 39 % 0 mm 0.0 W/m2 OVC
20:29 -6.1 °C -14.1 °C 34462.7 hPa SW 18.2 km/h 18.2 km/h 39 % 0 mm 0.0 W/m2 OVC
20:34 -6.3 °C -14.2 °C 34462.7 hPa SSW 20.9 km/h 20.9 km/h 40 % 0 mm 0.0 W/m2 CLR
20:39 -6.3 °C -14 °C 34462.7 hPa SW 23.8 km/h 23.8 km/h 41 % 0 mm 0.0 W/m2 CLR
20:44 -6.3 °C -14 °C 34462.7 hPa WSW 26.9 km/h 26.9 km/h 41 % 0 mm 0.0 W/m2 CLR
20:49 -6.3 °C -13.8 °C 34462.7 hPa SW 2.6 km/h   42 % 0 mm 0.0 W/m2 CLR
20:54 -6.7 °C -14.1 °C 34476.3 hPa SW 9 km/h 9 km/h 42 % 0 mm 0.0 W/m2 CLR
20:59 -7 °C -14.1 °C 34476.3 hPa SW 20.9 km/h 20.9 km/h 43 % 0 mm 0.0 W/m2 CLR
21:04 -7.3 °C -14.4 °C 34486.4 hPa SW 29.8 km/h 29.8 km/h 43 % 0 mm 0.0 W/m2 CLR
21:09 -7.3 °C -14.4 °C 34486.4 hPa SSW 41.7 km/h 41.7 km/h 43 % 0 mm 0.0 W/m2 CLR
21:14 -7 °C -14.1 °C 34486.4 hPa West 38.8 km/h 38.8 km/h 43 % 0 mm 0.0 W/m2 CLR
21:19 -6.3 °C -13.4 °C 34486.4 hPa WSW 32.8 km/h 32.8 km/h 44 % 0 mm 0.0 W/m2 CLR
21:24 -6.3 °C -13.4 °C 34486.4 hPa SSW 33.6 km/h 33.6 km/h 44 % 0 mm 0.0 W/m2 CLR
21:29 -6.3 °C -13.2 °C 34496.6 hPa SW 29.8 km/h 29.8 km/h 45 % 0 mm 0.0 W/m2 CLR
21:30 -6.3 °C -13.2 °C 34496.6 hPa SSW 29.8 km/h 29.8 km/h 45 % 0 mm 0.0 W/m2 CLR
21:35 -6.3 °C -13.2 °C 34496.6 hPa SSW 32.8 km/h 32.8 km/h 45 % 0 mm 0.0 W/m2 CLR
21:40 -6.3 °C -13.2 °C 34496.6 hPa WSW 50.7 km/h 50.7 km/h 45 % 0 mm 0.0 W/m2 CLR
21:45 -6.3 °C -13.2 °C 34496.6 hPa SW 35.7 km/h 35.7 km/h 45 % 0 mm 0.0 W/m2 CLR
21:50 -6.3 °C -13 °C 34496.6 hPa SW 29.8 km/h 29.8 km/h 46 % 0 mm 0.0 W/m2 CLR
21:55 -6.3 °C -13 °C 34496.6 hPa SW 32.8 km/h 32.8 km/h 46 % 0 mm 0.0 W/m2 CLR
22:00 -6.7 °C -13.2 °C 34496.6 hPa WSW 38.8 km/h 38.8 km/h 47 % 0 mm 0.0 W/m2 CLR
22:05 -6.3 °C -12.7 °C 34496.6 hPa WSW 50.7 km/h 50.7 km/h 48 % 0 mm 0.0 W/m2 CLR
22:10 -6.3 °C -12.9 °C 34496.6 hPa SW 53.6 km/h 53.6 km/h 47 % 0 mm 0.0 W/m2 CLR
22:15 -6.3 °C -12.9 °C 34496.6 hPa SSW 32.8 km/h 32.8 km/h 47 % 0 mm 0.0 W/m2 CLR
22:20 -6.3 °C -12.9 °C 34496.6 hPa SSW 29.8 km/h 29.8 km/h 47 % 0 mm 0.0 W/m2 CLR
22:25 -6.7 °C -12.9 °C 34496.6 hPa SW 41.7 km/h 41.7 km/h 48 % 0 mm 0.0 W/m2 CLR
22:30 -6.7 °C -12.9 °C 34496.6 hPa SSW 44.7 km/h 44.7 km/h 48 % 0 mm 0.0 W/m2 CLR
22:35 -6.7 °C -12.8 °C 34496.6 hPa SSW 32.8 km/h 32.8 km/h 49 % 0 mm 0.0 W/m2 CLR
22:40 -6.7 °C -12.6 °C 34496.6 hPa SSW 50.7 km/h 50.7 km/h 50 % 0 mm 0.0 W/m2 CLR
22:45 -6.7 °C -12.6 °C 34496.6 hPa SSW 41.7 km/h 41.7 km/h 50 % 0 mm 0.0 W/m2 CLR
22:50 -6.7 °C -12.6 °C 34496.6 hPa SW 41.7 km/h 41.7 km/h 50 % 0 mm 0.0 W/m2 CLR
22:55 -6.7 °C -12.4 °C 34496.6 hPa SSW 35.7 km/h 35.7 km/h 51 % 0 mm 0.0 W/m2 CLR
23:00 -6.7 °C -12.4 °C 34496.6 hPa SSW 50.7 km/h 50.7 km/h 51 % 0 mm 0.0 W/m2 CLR
23:05 -6.7 °C -12.6 °C 34496.6 hPa SSW 59.5 km/h 59.5 km/h 50 % 0 mm 0.0 W/m2 CLR
23:10 -6.7 °C -12.6 °C 34496.6 hPa SSW 38.8 km/h 38.8 km/h 50 % 0 mm 0.0 W/m2 CLR
23:15 -6.7 °C -12.6 °C 34510.1 hPa SSW 41.7 km/h 41.7 km/h 50 % 0 mm 0.0 W/m2 CLR
23:20 -6.7 °C -12.4 °C 34510.1 hPa SSW 41.7 km/h 41.7 km/h 51 % 0 mm 0.0 W/m2 CLR
23:25 -6.7 °C -12.3 °C 34510.1 hPa SSW 38.8 km/h 38.8 km/h 52 % 0 mm 0.0 W/m2 CLR
23:30 -6.7 °C -12.3 °C 34510.1 hPa SSW 44.7 km/h 44.7 km/h 52 % 0 mm 0.0 W/m2 CLR
23:35 -7 °C -12.6 °C 34510.1 hPa SSW 47.6 km/h 47.6 km/h 52 % 0 mm 0.0 W/m2 CLR
23:40 -7 °C -12.4 °C 34510.1 hPa SSW 35.7 km/h 35.7 km/h 53 % 0 mm 0.0 W/m2 CLR
23:45 -7 °C -12.4 °C 34510.1 hPa SW 38.8 km/h 38.8 km/h 53 % 0 mm 0.0 W/m2 CLR
23:50 -7 °C -12.4 °C 34510.1 hPa SSW 47.6 km/h 47.6 km/h 53 % 0 mm 0.0 W/m2 CLR
23:55 -7 °C -12.3 °C 34510.1 hPa SSW 41.7 km/h 41.7 km/h 54 % 0 mm 0.0 W/m2 CLR
Lo Temps de Massalio
Compliments of Weather Underground - 1.25 mb